Yidu, China
Current Conditions -  °F | °C
As of 12:00 PM on Wednesday 22 Oct 2014 (Local Time) from ZSJN Reporting Station
Clear Clear  
Wind Chill: 66°   Ceiling: Unl
Heat Index: 66°   Visibility: 5mi
Dew Point: 41°   Wind: 7mph
Humidity: 40%   Direction: 270°W
Pressure: 30.21"   Gusts: NA
Location:  36.68°N, 118.47°E
Report Text: ZSJN 220400Z 27003MPS 220V310 8000 NSC 19/05 Q1023 NOSIG
Loading
Personal Weather Stations






























Interactive Weather Map
Tropical Storm Tracking
New forecast layout! Learn more

10-Day Weather Forecast

Advertisements
Track Severe Weather on mobile